createdAt,value
2018-12-06T00:01:41.821Z,10.53
2018-12-06T00:04:07.563Z,14.20
2018-12-06T00:06:33.291Z,12.37
2018-12-06T00:08:59.008Z,13.10
2018-12-06T00:11:24.744Z,12.17
2018-12-06T00:13:51.081Z,11.47
2018-12-06T00:16:16.911Z,9.43
2018-12-06T00:18:46.630Z,14.20
2018-12-06T00:21:12.368Z,9.25
2018-12-06T00:23:38.082Z,14.47
2018-12-06T00:26:03.919Z,11.93
2018-12-06T00:28:29.633Z,11.77
2018-12-06T00:30:55.355Z,12.77
2018-12-06T00:33:21.089Z,10.63
2018-12-06T00:35:47.019Z,11.40
2018-12-06T00:38:12.827Z,10.10
2018-12-06T00:40:38.545Z,12.37
2018-12-06T00:43:04.259Z,12.27
2018-12-06T00:45:30.188Z,12.60
2018-12-06T00:47:56.019Z,11.12
2018-12-06T00:50:21.735Z,11.60
2018-12-06T00:52:47.456Z,12.13
2018-12-06T00:55:13.395Z,13.30
2018-12-06T00:57:39.115Z,10.20
2018-12-06T01:00:06.743Z,11.93
2018-12-06T01:02:32.575Z,10.20
2018-12-06T01:04:58.393Z,12.43
2018-12-06T01:07:24.225Z,10.33
2018-12-06T01:09:49.939Z,10.53
2018-12-06T01:12:15.670Z,12.20
2018-12-06T01:14:41.486Z,12.47
2018-12-06T01:17:08.409Z,11.43
2018-12-06T01:19:34.335Z,15.00
2018-12-06T01:22:00.456Z,12.47
2018-12-06T01:24:26.392Z,12.57
2018-12-06T01:26:52.250Z,10.03
2018-12-06T01:29:17.978Z,10.20
2018-12-06T01:31:43.706Z,12.70
2018-12-06T01:34:09.419Z,15.63
2018-12-06T01:36:35.137Z,13.27
2018-12-06T01:39:00.867Z,11.43
2018-12-06T01:41:26.682Z,12.07
2018-12-06T01:43:52.396Z,10.03
2018-12-06T01:46:18.108Z,11.27
2018-12-06T01:48:44.140Z,13.70
2018-12-06T01:51:09.859Z,11.63
2018-12-06T01:53:35.791Z,12.93
2018-12-06T01:56:01.511Z,9.67
2018-12-06T01:58:27.249Z,10.63
2018-12-06T02:00:52.952Z,14.03
2018-12-06T02:03:18.680Z,10.37
2018-12-06T02:05:44.403Z,14.40
2018-12-06T02:08:10.120Z,10.67
2018-12-06T02:10:35.934Z,10.23
2018-12-06T02:13:01.667Z,10.23
2018-12-06T02:15:27.392Z,10.50
2018-12-06T02:17:53.155Z,11.10
2018-12-06T02:20:18.974Z,8.93
2018-12-06T02:22:44.711Z,14.33
2018-12-06T02:25:10.547Z,12.93
2018-12-06T02:27:36.291Z,9.90
2018-12-06T02:30:03.524Z,12.30
2018-12-06T02:32:29.247Z,9.43
2018-12-06T02:34:55.079Z,8.77
2018-12-06T02:37:20.801Z,9.80
2018-12-06T02:39:46.632Z,8.47
2018-12-06T02:42:12.352Z,11.07
2018-12-06T02:44:38.396Z,10.23
2018-12-06T02:47:04.127Z,11.97
2018-12-06T02:49:29.950Z,11.93
2018-12-06T02:51:55.675Z,8.50
2018-12-06T02:54:23.236Z,7.70
2018-12-06T02:56:48.967Z,8.40
2018-12-06T02:59:14.698Z,9.73
2018-12-06T03:01:40.623Z,14.63
2018-12-06T03:04:06.459Z,12.53
2018-12-06T03:06:32.195Z,11.90
2018-12-06T03:08:58.135Z,9.37
2018-12-06T03:11:23.869Z,12.67
2018-12-06T03:13:49.726Z,14.93
2018-12-06T03:16:15.440Z,9.80
2018-12-06T03:18:41.154Z,13.77
2018-12-06T03:21:06.874Z,15.17
2018-12-06T03:23:32.599Z,11.90
2018-12-06T03:25:58.343Z,11.73
2018-12-06T03:28:24.061Z,13.20
2018-12-06T03:30:49.788Z,11.93
2018-12-06T03:33:15.615Z,10.13
2018-12-06T03:35:41.458Z,11.63
2018-12-06T03:38:07.185Z,10.57
2018-12-06T03:40:32.905Z,10.93
2018-12-06T03:42:58.727Z,14.93
2018-12-06T03:45:24.450Z,11.63
2018-12-06T03:47:50.266Z,14.50
2018-12-06T03:50:15.995Z,17.27
2018-12-06T03:52:41.699Z,12.50
2018-12-06T03:55:07.442Z,12.67
2018-12-06T03:57:33.267Z,15.00
2018-12-06T03:59:58.996Z,14.60
2018-12-06T04:02:24.710Z,12.43
2018-12-06T04:04:50.443Z,12.53
2018-12-06T04:07:16.152Z,17.80
2018-12-06T04:09:41.862Z,13.50
2018-12-06T04:12:07.683Z,15.07
2018-12-06T04:14:33.504Z,16.23
2018-12-06T04:16:59.338Z,18.37
2018-12-06T04:19:25.254Z,13.00
2018-12-06T04:21:51.079Z,14.20
2018-12-06T04:24:16.891Z,13.90
2018-12-06T04:26:42.715Z,14.80
2018-12-06T04:29:08.438Z,14.80
2018-12-06T04:31:35.079Z,13.53
2018-12-06T04:34:01.007Z,11.95
2018-12-06T04:36:26.715Z,15.97
2018-12-06T04:38:52.423Z,18.40
2018-12-06T04:41:18.164Z,15.77
2018-12-06T04:43:43.879Z,14.00
2018-12-06T04:46:09.594Z,13.23
2018-12-06T04:48:35.307Z,15.60
2018-12-06T04:51:01.143Z,15.73
2018-12-06T04:53:26.859Z,12.73
2018-12-06T04:55:52.570Z,14.33
2018-12-06T04:58:18.288Z,13.83
2018-12-06T05:00:44.111Z,14.00
2018-12-06T05:03:09.846Z,14.57
2018-12-06T05:05:35.580Z,14.27
2018-12-06T05:08:01.296Z,17.13
2018-12-06T05:10:27.023Z,17.43
2018-12-06T05:12:52.752Z,13.50
2018-12-06T05:15:18.561Z,14.80
2018-12-06T05:17:44.290Z,12.87
2018-12-06T05:20:10.106Z,15.90
2018-12-06T05:22:35.927Z,14.57
2018-12-06T05:25:02.255Z,16.70
2018-12-06T05:27:28.116Z,16.07
2018-12-06T05:29:53.827Z,16.10
2018-12-06T05:32:19.642Z,13.97
2018-12-06T05:34:45.346Z,16.77
2018-12-06T05:37:11.054Z,20.23
2018-12-06T05:39:36.766Z,16.33
2018-12-06T05:42:02.587Z,15.10
2018-12-06T05:44:28.287Z,13.97
2018-12-06T05:46:53.995Z,17.70
2018-12-06T05:49:19.721Z,14.57
2018-12-06T05:51:45.432Z,14.20
2018-12-06T05:54:11.267Z,17.43
2018-12-06T05:56:36.993Z,15.23
2018-12-06T05:59:02.928Z,14.90
2018-12-06T06:01:28.750Z,17.40
2018-12-06T06:03:54.519Z,18.47
2018-12-06T06:06:20.241Z,17.73
2018-12-06T06:08:45.968Z,18.20
2018-12-06T06:11:11.787Z,19.00
2018-12-06T06:13:37.627Z,16.77
2018-12-06T06:16:03.358Z,18.83
2018-12-06T06:18:29.190Z,16.83
2018-12-06T06:20:54.903Z,20.33
2018-12-06T06:23:20.627Z,20.07
2018-12-06T06:25:46.565Z,17.13
2018-12-06T06:28:12.286Z,18.17
2018-12-06T06:30:38.004Z,16.10
2018-12-06T06:33:03.723Z,19.77
2018-12-06T06:35:29.440Z,17.93
2018-12-06T06:37:55.159Z,18.03
2018-12-06T06:40:27.791Z,19.27
2018-12-06T06:42:53.517Z,21.37
2018-12-06T06:45:19.351Z,22.13
2018-12-06T06:47:45.066Z,27.70
2018-12-06T06:50:10.787Z,22.40
2018-12-06T06:52:36.515Z,24.43
2018-12-06T06:55:02.748Z,24.47
2018-12-06T06:57:28.458Z,26.33
2018-12-06T06:59:54.190Z,25.23
2018-12-06T07:02:20.004Z,27.10
2018-12-06T07:04:52.667Z,30.37
2018-12-06T07:07:18.381Z,25.60
2018-12-06T07:09:44.103Z,29.10
2018-12-06T07:12:09.829Z,26.00
2018-12-06T07:14:35.576Z,30.37
2018-12-06T07:17:01.325Z,32.83
2018-12-06T07:19:27.147Z,30.70
2018-12-06T07:21:52.980Z,30.67
2018-12-06T07:24:18.710Z,37.53
2018-12-06T07:26:44.588Z,36.67
2018-12-06T07:29:10.480Z,34.93
2018-12-06T07:31:36.338Z,33.70
2018-12-06T07:34:02.281Z,33.80
2018-12-06T07:36:28.111Z,31.77
2018-12-06T07:38:53.839Z,32.20
2018-12-06T07:41:19.597Z,37.90
2018-12-06T07:43:45.313Z,35.53
2018-12-06T07:46:11.034Z,37.17
2018-12-06T07:48:36.860Z,39.27
2018-12-06T07:51:02.705Z,42.40
2018-12-06T07:53:28.423Z,37.77
2018-12-06T07:55:54.255Z,41.23
2018-12-06T07:58:19.966Z,43.00
2018-12-06T08:00:45.752Z,39.40
2018-12-06T08:03:11.476Z,40.83
2018-12-06T08:05:37.211Z,43.57
2018-12-06T08:08:10.179Z,47.97
2018-12-06T08:10:36.030Z,45.10
2018-12-06T08:13:01.742Z,53.73
2018-12-06T08:15:27.469Z,50.33
2018-12-06T08:17:53.194Z,57.80
2018-12-06T08:20:18.914Z,58.37
2018-12-06T08:22:44.642Z,51.90
2018-12-06T08:25:10.367Z,50.67
2018-12-06T08:27:36.199Z,52.73
2018-12-06T08:30:02.750Z,51.30
2018-12-06T08:32:28.589Z,58.97
2018-12-06T08:34:54.423Z,56.87
2018-12-06T08:37:20.159Z,55.80
2018-12-06T08:39:45.867Z,60.17
2018-12-06T08:42:11.600Z,57.83
2018-12-06T08:44:37.315Z,65.40
2018-12-06T08:47:03.143Z,66.67
2018-12-06T08:49:29.067Z,72.23
2018-12-06T08:51:54.900Z,73.17
2018-12-06T08:54:20.712Z,69.87
2018-12-06T08:56:46.536Z,72.97
2018-12-06T08:59:12.376Z,68.43
2018-12-06T09:01:38.208Z,72.67
2018-12-06T09:04:04.032Z,73.13
2018-12-06T09:06:29.878Z,67.63
2018-12-06T09:08:56.632Z,65.97
2018-12-06T09:11:23.851Z,69.70
2018-12-06T09:13:49.634Z,58.00
2018-12-06T09:16:16.357Z,70.63
2018-12-06T09:18:42.326Z,64.47
2018-12-06T09:21:08.040Z,64.33
2018-12-06T09:23:33.863Z,73.10
2018-12-06T09:25:59.698Z,83.67
2018-12-06T09:28:25.643Z,78.43
2018-12-06T09:30:51.368Z,72.73
2018-12-06T09:33:17.099Z,70.87
2018-12-06T09:35:42.920Z,71.97
2018-12-06T09:38:08.764Z,75.60
2018-12-06T09:40:34.600Z,75.80
2018-12-06T09:43:00.336Z,76.77
2018-12-06T09:45:26.146Z,79.13
2018-12-06T09:47:51.872Z,76.03
2018-12-06T09:50:18.410Z,81.43
2018-12-06T09:52:44.336Z,73.33
2018-12-06T09:55:10.045Z,75.90
2018-12-06T09:57:35.775Z,82.47
2018-12-06T10:00:01.633Z,85.07
2018-12-06T10:02:27.470Z,78.80
2018-12-06T10:04:53.209Z,79.10
2018-12-06T10:07:18.923Z,83.60
2018-12-06T10:09:44.653Z,76.47
2018-12-06T10:12:10.571Z,78.53
2018-12-06T10:14:36.445Z,85.33
2018-12-06T10:17:02.274Z,73.60
2018-12-06T10:19:28.003Z,80.40
2018-12-06T10:21:53.819Z,79.07
2018-12-06T10:24:19.552Z,70.27
2018-12-06T10:26:45.263Z,76.33
2018-12-06T10:29:10.984Z,77.83
2018-12-06T10:31:36.691Z,84.97
2018-12-06T10:34:02.435Z,77.90
2018-12-06T10:36:28.263Z,85.67
2018-12-06T10:38:54.101Z,87.93
2018-12-06T10:41:19.936Z,106.13
2018-12-06T10:43:45.678Z,97.33
2018-12-06T10:46:11.398Z,95.40
2018-12-06T10:48:37.114Z,101.63
2018-12-06T10:51:15.050Z,96.80
2018-12-06T10:53:40.770Z,100.60
2018-12-06T10:56:06.499Z,96.73
2018-12-06T10:58:32.476Z,100.30
2018-12-06T11:01:07.764Z,96.33
2018-12-06T11:03:36.030Z,103.43
2018-12-06T11:06:01.764Z,110.73
2018-12-06T11:08:28.609Z,103.13
2018-12-06T11:10:54.345Z,101.90
2018-12-06T11:13:20.115Z,101.33
2018-12-06T11:15:45.951Z,108.93
2018-12-06T11:18:11.678Z,94.03
2018-12-06T11:20:37.882Z,110.23
2018-12-06T11:23:03.626Z,115.20
2018-12-06T11:25:29.471Z,106.03
2018-12-06T11:27:55.299Z,118.10
2018-12-06T11:30:21.028Z,117.33
2018-12-06T11:32:46.755Z,111.83
2018-12-06T11:35:12.704Z,120.30
2018-12-06T11:37:38.543Z,118.70
2018-12-06T11:40:04.472Z,108.20
2018-12-06T11:42:30.203Z,118.27
2018-12-06T11:44:55.924Z,123.07
2018-12-06T11:47:21.755Z,104.23
2018-12-06T11:49:47.587Z,101.93
2018-12-06T11:52:13.429Z,99.83
2018-12-06T11:54:39.145Z,115.43
2018-12-06T11:57:04.881Z,109.27
2018-12-06T11:59:30.708Z,112.53
2018-12-06T12:01:56.535Z,113.40
2018-12-06T12:04:22.360Z,116.60
2018-12-06T12:06:48.243Z,111.80
2018-12-06T12:09:14.027Z,124.87
2018-12-06T12:11:39.747Z,124.77
2018-12-06T12:14:05.572Z,116.77
2018-12-06T12:16:31.477Z,126.10
2018-12-06T12:18:57.333Z,108.40
2018-12-06T12:21:23.043Z,107.73
2018-12-06T12:23:48.765Z,105.67
2018-12-06T12:26:14.495Z,112.17
2018-12-06T12:28:40.331Z,108.57
2018-12-06T12:31:06.356Z,98.93
2018-12-06T12:33:32.183Z,106.73
2018-12-06T12:35:57.903Z,93.00
2018-12-06T12:38:23.745Z,90.90
2018-12-06T12:40:49.459Z,102.77
2018-12-06T12:43:15.191Z,102.17
2018-12-06T12:45:41.011Z,94.97
2018-12-06T12:48:06.727Z,100.17
2018-12-06T12:50:32.455Z,100.87
2018-12-06T12:52:58.279Z,94.73
2018-12-06T12:55:23.987Z,110.53
2018-12-06T12:57:49.807Z,95.17
2018-12-06T13:00:15.636Z,100.10
2018-12-06T13:02:41.456Z,106.43
2018-12-06T13:05:07.322Z,102.20
2018-12-06T13:07:33.079Z,97.47
2018-12-06T13:09:58.806Z,108.73
2018-12-06T13:12:24.632Z,107.60
2018-12-06T13:14:50.475Z,115.93
2018-12-06T13:17:16.308Z,94.53
2018-12-06T13:19:42.042Z,94.23
2018-12-06T13:22:07.779Z,96.53
2018-12-06T13:24:33.527Z,80.87
2018-12-06T13:26:59.282Z,84.30
2018-12-06T13:29:25.006Z,99.87
2018-12-06T13:31:50.740Z,94.03
2018-12-06T13:34:16.663Z,94.80
2018-12-06T13:36:42.443Z,86.00
2018-12-06T13:39:08.256Z,89.47
2018-12-06T13:41:34.195Z,96.37
2018-12-06T13:43:59.926Z,83.53
2018-12-06T13:46:25.772Z,91.77
2018-12-06T13:48:51.580Z,93.07
2018-12-06T13:51:17.311Z,94.13
2018-12-06T13:53:43.039Z,108.93
2018-12-06T13:56:09.054Z,110.67
2018-12-06T13:58:34.881Z,118.63
2018-12-06T14:01:00.838Z,113.60
2018-12-06T14:03:26.977Z,119.87
2018-12-06T14:08:25.311Z,144.43
2018-12-06T14:10:51.190Z,152.33
2018-12-06T14:13:23.454Z,164.67
2018-12-06T14:15:44.733Z,154.00
2018-12-06T14:18:10.463Z,187.20
2018-12-06T14:20:36.199Z,194.03
2018-12-06T14:23:02.014Z,176.00
2018-12-06T14:25:27.792Z,178.30
2018-12-06T14:27:53.516Z,186.37
2018-12-06T14:30:19.359Z,213.60
2018-12-06T14:32:45.112Z,171.53
2018-12-06T14:35:10.968Z,179.77
2018-12-06T14:37:37.782Z,179.00
2018-12-06T14:40:05.228Z,202.50
2018-12-06T14:42:30.963Z,174.57
2018-12-06T14:44:56.703Z,180.03
2018-12-06T14:47:22.476Z,166.50
2018-12-06T14:49:48.300Z,157.97
2018-12-06T14:52:14.028Z,144.83
2018-12-06T14:54:39.775Z,178.87
2018-12-06T14:57:05.632Z,143.87
2018-12-06T14:59:31.365Z,195.73
2018-12-06T15:01:57.107Z,136.17
2018-12-06T15:04:22.929Z,128.10
2018-12-06T15:06:48.767Z,124.00
2018-12-06T15:09:14.496Z,125.73
2018-12-06T15:11:40.344Z,123.03
2018-12-06T15:14:06.176Z,111.03
2018-12-06T15:16:32.023Z,106.83
2018-12-06T15:18:57.758Z,94.03
2018-12-06T15:21:23.492Z,94.40
2018-12-06T15:23:49.329Z,95.57
2018-12-06T15:26:15.057Z,96.03
2018-12-06T15:28:40.812Z,94.67
2018-12-06T15:31:06.543Z,92.20
2018-12-06T15:33:32.294Z,78.80
2018-12-06T15:35:58.121Z,85.37
2018-12-06T15:38:23.971Z,85.53
2018-12-06T15:40:49.696Z,94.70
2018-12-06T15:43:15.440Z,83.40
2018-12-06T15:45:41.175Z,84.03
2018-12-06T15:48:07.013Z,80.40
2018-12-06T15:50:32.957Z,102.73
2018-12-06T15:52:58.799Z,94.57
2018-12-06T15:55:24.635Z,76.27
2018-12-06T15:57:50.471Z,79.20
2018-12-06T16:00:16.299Z,67.23
2018-12-06T16:02:42.144Z,85.93
2018-12-06T16:05:07.958Z,76.13
2018-12-06T16:07:33.711Z,81.50
2018-12-06T16:09:59.654Z,81.50
2018-12-06T16:12:25.367Z,66.73
2018-12-06T16:14:51.224Z,65.53
2018-12-06T16:17:16.941Z,58.30
2018-12-06T16:19:42.687Z,74.30
2018-12-06T16:22:08.516Z,56.80
2018-12-06T16:24:34.267Z,66.97
2018-12-06T16:27:00.005Z,61.17
2018-12-06T16:29:25.739Z,63.70
2018-12-06T16:31:51.460Z,62.13
2018-12-06T16:34:17.193Z,65.87
2018-12-06T16:36:42.939Z,64.27
2018-12-06T16:39:08.800Z,60.33
2018-12-06T16:41:34.626Z,53.47
2018-12-06T16:44:00.481Z,44.87
2018-12-06T16:46:26.216Z,43.67
2018-12-06T16:48:52.079Z,46.90
2018-12-06T16:51:17.915Z,50.47
2018-12-06T16:53:43.759Z,51.37
2018-12-06T16:56:09.700Z,54.63
2018-12-06T16:58:35.529Z,46.50
2018-12-06T17:01:01.453Z,43.60
2018-12-06T17:03:27.267Z,53.13
2018-12-06T17:05:53.003Z,52.33
2018-12-06T17:08:18.731Z,53.30
2018-12-06T17:10:44.480Z,53.43
2018-12-06T17:13:10.216Z,56.70
2018-12-06T17:15:36.060Z,58.87
2018-12-06T17:18:01.808Z,58.47
2018-12-06T17:20:27.546Z,61.87
2018-12-06T17:22:53.289Z,65.03
2018-12-06T17:25:19.151Z,62.43
2018-12-06T17:27:44.874Z,71.90
2018-12-06T17:30:11.034Z,75.43
2018-12-06T17:32:36.875Z,71.13
2018-12-06T17:35:03.425Z,67.23
2018-12-06T17:37:29.273Z,69.73
2018-12-06T17:39:55.022Z,66.23
2018-12-06T17:42:20.876Z,76.20
2018-12-06T17:44:46.716Z,46.77
2018-12-06T17:47:12.472Z,55.30
2018-12-06T17:49:38.243Z,53.57
2018-12-06T17:52:03.997Z,71.10
2018-12-06T17:54:29.744Z,60.63
2018-12-06T17:56:55.588Z,71.80
2018-12-06T17:59:21.512Z,65.90
2018-12-06T18:01:47.249Z,72.87
2018-12-06T18:04:13.316Z,61.77
2018-12-06T18:06:39.164Z,64.17
2018-12-06T18:09:05.711Z,77.40
2018-12-06T18:11:31.466Z,66.07
2018-12-06T18:13:57.202Z,76.00
2018-12-06T18:16:23.063Z,73.43
2018-12-06T18:18:48.895Z,60.67
2018-12-06T18:21:14.939Z,76.90
2018-12-06T18:23:40.673Z,65.80
2018-12-06T18:26:06.523Z,56.30
2018-12-06T18:28:32.364Z,55.03
2018-12-06T18:30:58.195Z,58.03
2018-12-06T18:33:23.939Z,65.67
2018-12-06T18:35:49.772Z,65.27
2018-12-06T18:38:15.511Z,52.50
2018-12-06T18:40:41.240Z,55.47
2018-12-06T18:43:06.983Z,52.97
2018-12-06T18:45:32.711Z,58.90
2018-12-06T18:47:58.531Z,55.67
2018-12-06T18:50:24.260Z,56.47
2018-12-06T18:52:50.091Z,56.80
2018-12-06T18:55:15.827Z,53.53
2018-12-06T18:57:41.666Z,49.23
2018-12-06T19:00:08.197Z,50.07
2018-12-06T19:02:34.035Z,48.50
2018-12-06T19:04:59.768Z,59.40
2018-12-06T19:07:25.599Z,48.27
2018-12-06T19:09:51.312Z,52.80
2018-12-06T19:12:17.139Z,57.87
2018-12-06T19:14:42.992Z,52.50
2018-12-06T19:17:40.724Z,54.97
2018-12-06T19:20:06.671Z,55.83
2018-12-06T19:22:32.502Z,64.83
2018-12-06T19:24:58.242Z,65.47
2018-12-06T19:27:24.078Z,64.10
2018-12-06T19:29:49.917Z,72.10
2018-12-06T19:32:15.651Z,68.30
2018-12-06T19:34:41.812Z,66.53
2018-12-06T19:37:07.770Z,64.33
2018-12-06T19:39:33.606Z,60.73
2018-12-06T19:41:59.434Z,63.60
2018-12-06T19:44:25.173Z,57.30
2018-12-06T19:46:50.999Z,52.73
2018-12-06T19:49:16.728Z,52.73
2018-12-06T19:51:42.462Z,39.20
2018-12-06T19:54:08.216Z,39.73
2018-12-06T19:56:33.943Z,38.83
2018-12-06T19:59:06.757Z,35.80
2018-12-06T20:01:32.601Z,37.70
2018-12-06T20:03:58.447Z,42.27
2018-12-06T20:06:24.274Z,37.30
2018-12-06T20:08:50.008Z,37.67
2018-12-06T20:11:15.838Z,40.97
2018-12-06T20:13:41.663Z,40.93
2018-12-06T20:16:07.482Z,38.57
2018-12-06T20:18:33.211Z,39.20
2018-12-06T20:20:58.956Z,44.20
2018-12-06T20:23:24.692Z,40.60
2018-12-06T20:25:50.447Z,34.13
2018-12-06T20:28:16.179Z,34.20
2018-12-06T20:30:41.903Z,34.50
2018-12-06T20:33:07.705Z,28.13
2018-12-06T20:35:33.431Z,34.17
2018-12-06T20:37:59.154Z,30.70
2018-12-06T20:40:24.883Z,31.33
2018-12-06T20:42:50.617Z,27.43
2018-12-06T20:45:16.455Z,23.90
2018-12-06T20:47:42.194Z,25.90
2018-12-06T20:50:08.028Z,24.10
2018-12-06T20:52:33.759Z,27.73
2018-12-06T20:54:59.496Z,29.57
2018-12-06T20:57:25.220Z,24.60
2018-12-06T20:59:50.947Z,29.97
2018-12-06T21:02:16.675Z,29.50
2018-12-06T21:04:42.429Z,28.40
2018-12-06T21:07:08.243Z,29.57
2018-12-06T21:09:33.971Z,30.93
2018-12-06T21:11:59.798Z,37.23
2018-12-06T21:14:25.534Z,28.50
2018-12-06T21:16:51.262Z,31.63
2018-12-06T21:19:17.098Z,37.67
2018-12-06T21:21:42.820Z,38.63
2018-12-06T21:24:08.544Z,42.33
2018-12-06T21:26:34.471Z,39.63
2018-12-06T21:29:00.244Z,40.23
2018-12-06T21:31:26.091Z,46.67
2018-12-06T21:33:51.920Z,49.17
2018-12-06T21:36:17.679Z,59.33
2018-12-06T21:38:43.399Z,55.23
2018-12-06T21:41:09.133Z,61.77
2018-12-06T21:43:34.959Z,55.70
2018-12-06T21:46:00.697Z,74.20
2018-12-06T21:48:26.440Z,61.20
2018-12-06T21:50:52.172Z,53.40
2018-12-06T21:53:17.886Z,52.30
2018-12-06T21:55:43.641Z,59.43
2018-12-06T21:58:09.376Z,59.60
2018-12-06T22:00:35.111Z,66.67
2018-12-06T22:03:00.942Z,50.47
2018-12-06T22:05:26.769Z,65.33
2018-12-06T22:07:52.508Z,52.17
2018-12-06T22:10:18.232Z,47.83
2018-12-06T22:12:44.358Z,54.03
2018-12-06T22:15:10.201Z,64.23
2018-12-06T22:17:36.042Z,62.73
2018-12-06T22:20:02.270Z,65.07
2018-12-06T22:22:28.055Z,57.70
2018-12-06T22:24:53.884Z,68.20
2018-12-06T22:27:19.622Z,61.87
2018-12-06T22:29:52.372Z,65.23
2018-12-06T22:32:18.111Z,63.27
2018-12-06T22:34:44.037Z,68.10
2018-12-06T22:37:09.768Z,61.67
2018-12-06T22:39:35.599Z,48.27
2018-12-06T22:42:01.370Z,46.83
2018-12-06T22:44:27.115Z,43.73
2018-12-06T22:46:52.878Z,46.07
2018-12-06T22:49:19.065Z,57.27
2018-12-06T22:51:44.803Z,43.13
2018-12-06T22:54:10.647Z,42.53
2018-12-06T22:56:36.362Z,40.20
2018-12-06T22:59:09.155Z,37.50
2018-12-06T23:01:38.997Z,42.10
2018-12-06T23:04:04.841Z,44.13
2018-12-06T23:06:30.771Z,40.27
2018-12-06T23:08:56.599Z,37.87
2018-12-06T23:11:22.419Z,40.10
2018-12-06T23:13:48.161Z,32.70
2018-12-06T23:16:13.978Z,35.83
2018-12-06T23:18:39.804Z,36.30
2018-12-06T23:21:05.536Z,37.20
2018-12-06T23:23:31.275Z,32.80
2018-12-06T23:25:57.683Z,31.17
2018-12-06T23:28:23.403Z,27.07
2018-12-06T23:30:49.133Z,30.83
2018-12-06T23:33:14.856Z,34.97
2018-12-06T23:35:40.592Z,25.57
2018-12-06T23:38:06.333Z,27.93
2018-12-06T23:40:32.071Z,32.53
2018-12-06T23:42:57.890Z,28.13
2018-12-06T23:45:23.630Z,28.03
2018-12-06T23:47:49.463Z,30.87
2018-12-06T23:50:15.196Z,36.43
2018-12-06T23:52:41.035Z,29.80
2018-12-06T23:55:06.984Z,21.57
2018-12-06T23:57:32.709Z,19.37
2018-12-06T23:59:59.218Z,27.47
